sensor_id;sensor_type;location;lat;lon;timestamp;temperature;humidity
55016;DHT22;40919;43.236;21.590;2022-10-04T00:00:10;358.50;2329.60
55016;DHT22;40919;43.236;21.590;2022-10-04T00:02:36;358.50;2329.60
55016;DHT22;40919;43.236;21.590;2022-10-04T00:05:06;358.50;2329.60
55016;DHT22;40919;43.236;21.590;2022-10-04T00:07:44;358.50;2329.60
55016;DHT22;40919;43.236;21.590;2022-10-04T00:12:58;358.50;2329.60
55016;DHT22;40919;43.236;21.590;2022-10-04T00:15:25;358.40;2329.60
55016;DHT22;40919;43.236;21.590;2022-10-04T00:25:52;358.50;2329.60
55016;DHT22;40919;43.236;21.590;2022-10-04T00:33:42;358.50;2329.60
55016;DHT22;40919;43.236;21.590;2022-10-04T00:36:30;358.40;2329.60
55016;DHT22;40919;43.236;21.590;2022-10-04T00:44:14;358.40;2329.60
55016;DHT22;40919;43.236;21.590;2022-10-04T00:46:44;358.40;2329.60
55016;DHT22;40919;43.236;21.590;2022-10-04T00:49:11;358.50;2329.60
55016;DHT22;40919;43.236;21.590;2022-10-04T00:51:43;358.50;2329.60
55016;DHT22;40919;43.236;21.590;2022-10-04T01:02:14;358.50;2329.60
55016;DHT22;40919;43.236;21.590;2022-10-04T01:05:14;358.50;2329.60
55016;DHT22;40919;43.236;21.590;2022-10-04T01:07:45;358.60;2329.60
55016;DHT22;40919;43.236;21.590;2022-10-04T01:16:18;358.50;2329.60
55016;DHT22;40919;43.236;21.590;2022-10-04T01:18:45;358.50;2329.60
55016;DHT22;40919;43.236;21.590;2022-10-04T01:21:24;358.50;2329.60
55016;DHT22;40919;43.236;21.590;2022-10-04T01:24:14;358.60;2329.60
55016;DHT22;40919;43.236;21.590;2022-10-04T01:26:44;358.60;2329.60
55016;DHT22;40919;43.236;21.590;2022-10-04T01:29:23;358.50;2329.60
55016;DHT22;40919;43.236;21.590;2022-10-04T01:31:51;358.50;2329.60
55016;DHT22;40919;43.236;21.590;2022-10-04T01:34:26;358.50;2329.60
55016;DHT22;40919;43.236;21.590;2022-10-04T01:36:58;358.50;2329.60
55016;DHT22;40919;43.236;21.590;2022-10-04T01:39:26;358.50;2329.60
55016;DHT22;40919;43.236;21.590;2022-10-04T01:42:06;358.50;2329.60
55016;DHT22;40919;43.236;21.590;2022-10-04T01:50:24;358.70;2329.60
55016;DHT22;40919;43.236;21.590;2022-10-04T01:53:05;358.70;2329.60
55016;DHT22;40919;43.236;21.590;2022-10-04T01:55:35;358.60;2329.60
55016;DHT22;40919;43.236;21.590;2022-10-04T01:58:31;358.60;2329.60
55016;DHT22;40919;43.236;21.590;2022-10-04T02:00:58;358.60;2329.60
55016;DHT22;40919;43.236;21.590;2022-10-04T02:03:33;358.50;2329.60
55016;DHT22;40919;43.236;21.590;2022-10-04T02:06:03;358.50;2329.60
55016;DHT22;40919;43.236;21.590;2022-10-04T02:08:32;358.50;2329.60
55016;DHT22;40919;43.236;21.590;2022-10-04T02:11:02;358.40;2329.60
55016;DHT22;40919;43.236;21.590;2022-10-04T02:13:34;358.50;2329.60
55016;DHT22;40919;43.236;21.590;2022-10-04T02:16:02;358.40;2329.60
55016;DHT22;40919;43.236;21.590;2022-10-04T02:18:30;358.40;2329.60
55016;DHT22;40919;43.236;21.590;2022-10-04T02:20:58;358.40;2329.60
55016;DHT22;40919;43.236;21.590;2022-10-04T02:23:25;333.70;2329.60
55016;DHT22;40919;43.236;21.590;2022-10-04T02:25:51;333.70;2329.60
55016;DHT22;40919;43.236;21.590;2022-10-04T02:28:17;333.70;2329.60
55016;DHT22;40919;43.236;21.590;2022-10-04T02:30:49;358.40;2329.60
55016;DHT22;40919;43.236;21.590;2022-10-04T02:33:42;333.70;2329.60
55016;DHT22;40919;43.236;21.590;2022-10-04T02:36:09;358.40;2329.60
55016;DHT22;40919;43.236;21.590;2022-10-04T02:38:41;358.40;2329.60
55016;DHT22;40919;43.236;21.590;2022-10-04T02:41:25;358.40;2329.60
55016;DHT22;40919;43.236;21.590;2022-10-04T02:43:56;333.70;2329.60
55016;DHT22;40919;43.236;21.590;2022-10-04T02:46:26;333.70;2329.60
55016;DHT22;40919;43.236;21.590;2022-10-04T02:48:58;333.70;2329.60
55016;DHT22;40919;43.236;21.590;2022-10-04T02:54:19;333.60;2329.60
55016;DHT22;40919;43.236;21.590;2022-10-04T02:56:53;333.60;2329.60
55016;DHT22;40919;43.236;21.590;2022-10-04T02:59:20;333.60;2329.60
55016;DHT22;40919;43.236;21.590;2022-10-04T03:01:54;333.60;2329.60
55016;DHT22;40919;43.236;21.590;2022-10-04T03:04:23;333.50;2329.60
55016;DHT22;40919;43.236;21.590;2022-10-04T03:06:51;333.50;2329.60
55016;DHT22;40919;43.236;21.590;2022-10-04T03:09:20;333.50;2329.60
55016;DHT22;40919;43.236;21.590;2022-10-04T03:11:48;333.40;2329.60
55016;DHT22;40919;43.236;21.590;2022-10-04T03:14:22;333.50;2329.60
55016;DHT22;40919;43.236;21.590;2022-10-04T03:16:54;333.50;2329.60
55016;DHT22;40919;43.236;21.590;2022-10-04T03:19:21;333.50;2329.60
55016;DHT22;40919;43.236;21.590;2022-10-04T03:21:51;333.50;2329.60
55016;DHT22;40919;43.236;21.590;2022-10-04T03:24:20;333.40;2329.60
55016;DHT22;40919;43.236;21.590;2022-10-04T03:26:51;333.40;2329.60
55016;DHT22;40919;43.236;21.590;2022-10-04T03:29:18;333.50;2329.60
55016;DHT22;40919;43.236;21.590;2022-10-04T03:31:48;333.50;2329.60
55016;DHT22;40919;43.236;21.590;2022-10-04T03:34:18;333.30;2329.60
55016;DHT22;40919;43.236;21.590;2022-10-04T03:41:44;333.40;2329.60
55016;DHT22;40919;43.236;21.590;2022-10-04T03:44:17;333.30;2329.60
55016;DHT22;40919;43.236;21.590;2022-10-04T03:46:44;333.20;2329.60
55016;DHT22;40919;43.236;21.590;2022-10-04T03:49:14;333.20;2329.60
55016;DHT22;40919;43.236;21.590;2022-10-04T03:51:48;333.10;2329.60
55016;DHT22;40919;43.236;21.590;2022-10-04T03:54:18;333.00;2329.60
55016;DHT22;40919;43.236;21.590;2022-10-04T03:56:45;333.10;2329.60
55016;DHT22;40919;43.236;21.590;2022-10-04T03:59:15;333.10;2329.60
55016;DHT22;40919;43.236;21.590;2022-10-04T04:02:01;333.10;2329.60
55016;DHT22;40919;43.236;21.590;2022-10-04T04:07:45;333.10;2329.60
55016;DHT22;40919;43.236;21.590;2022-10-04T04:10:30;333.00;2329.60
55016;DHT22;40919;43.236;21.590;2022-10-04T04:13:50;333.00;2329.60
55016;DHT22;40919;43.236;21.590;2022-10-04T04:15:48;332.90;2329.60
55016;DHT22;40919;43.236;21.590;2022-10-04T04:18:18;307.80;2304.00
55016;DHT22;40919;43.236;21.590;2022-10-04T04:20:45;307.90;2304.00
55016;DHT22;40919;43.236;21.590;2022-10-04T04:25:47;308.00;2304.00
55016;DHT22;40919;43.236;21.590;2022-10-04T04:28:27;308.10;2304.00
55016;DHT22;40919;43.236;21.590;2022-10-04T04:31:04;308.10;2304.00
55016;DHT22;40919;43.236;21.590;2022-10-04T04:33:48;308.10;2304.00
55016;DHT22;40919;43.236;21.590;2022-10-04T04:36:16;308.10;2304.00
55016;DHT22;40919;43.236;21.590;2022-10-04T04:38:42;308.00;2304.00
55016;DHT22;40919;43.236;21.590;2022-10-04T04:41:29;308.10;2304.00
55016;DHT22;40919;43.236;21.590;2022-10-04T04:43:57;308.10;2304.00
55016;DHT22;40919;43.236;21.590;2022-10-04T04:46:23;308.10;2304.00
55016;DHT22;40919;43.236;21.590;2022-10-04T04:48:57;308.10;2304.00
55016;DHT22;40919;43.236;21.590;2022-10-04T04:51:25;307.90;2304.00
55016;DHT22;40919;43.236;21.590;2022-10-04T04:53:52;332.80;2329.60
55016;DHT22;40919;43.236;21.590;2022-10-04T04:56:22;332.90;2329.60
55016;DHT22;40919;43.236;21.590;2022-10-04T04:58:52;332.80;2329.60
55016;DHT22;40919;43.236;21.590;2022-10-04T05:01:28;308.10;2304.00
55016;DHT22;40919;43.236;21.590;2022-10-04T05:04:17;308.10;2304.00
55016;DHT22;40919;43.236;21.590;2022-10-04T05:06:45;308.10;2304.00
55016;DHT22;40919;43.236;21.590;2022-10-04T05:09:33;332.80;2329.60
55016;DHT22;40919;43.236;21.590;2022-10-04T05:12:18;308.10;2304.00
55016;DHT22;40919;43.236;21.590;2022-10-04T05:14:47;308.10;2304.00
55016;DHT22;40919;43.236;21.590;2022-10-04T05:17:25;308.10;2304.00
55016;DHT22;40919;43.236;21.590;2022-10-04T05:19:56;332.80;2329.60
55016;DHT22;40919;43.236;21.590;2022-10-04T05:22:23;332.80;2329.60
55016;DHT22;40919;43.236;21.590;2022-10-04T05:25:35;332.80;2329.60
55016;DHT22;40919;43.236;21.590;2022-10-04T05:28:01;332.80;2329.60
55016;DHT22;40919;43.236;21.590;2022-10-04T05:30:47;332.80;2329.60
55016;DHT22;40919;43.236;21.590;2022-10-04T05:33:44;332.90;2329.60
55016;DHT22;40919;43.236;21.590;2022-10-04T05:36:39;332.90;2329.60
55016;DHT22;40919;43.236;21.590;2022-10-04T05:42:36;333.00;2329.60
55016;DHT22;40919;43.236;21.590;2022-10-04T05:45:30;333.00;2329.60
55016;DHT22;40919;43.236;21.590;2022-10-04T05:47:58;333.10;2329.60
55016;DHT22;40919;43.236;21.590;2022-10-04T05:50:43;333.10;2329.60
55016;DHT22;40919;43.236;21.590;2022-10-04T06:06:58;333.30;2329.60
55016;DHT22;40919;43.236;21.590;2022-10-04T06:13:00;333.30;2329.60
55016;DHT22;40919;43.236;21.590;2022-10-04T06:18:48;333.30;2329.60
55016;DHT22;40919;43.236;21.590;2022-10-04T06:24:39;333.30;2329.60
55016;DHT22;40919;43.236;21.590;2022-10-04T06:30:03;333.30;2329.60
55016;DHT22;40919;43.236;21.590;2022-10-04T06:33:01;333.40;2329.60
55016;DHT22;40919;43.236;21.590;2022-10-04T06:50:15;358.40;2329.60
55016;DHT22;40919;43.236;21.590;2022-10-04T07:01:18;358.50;2329.60
55016;DHT22;40919;43.236;21.590;2022-10-04T07:06:28;358.70;2329.60
55016;DHT22;40919;43.236;21.590;2022-10-04T07:08:56;358.90;2329.60
55016;DHT22;40919;43.236;21.590;2022-10-04T07:11:45;359.00;2329.60
55016;DHT22;40919;43.236;21.590;2022-10-04T07:14:27;359.10;2329.60
55016;DHT22;40919;43.236;21.590;2022-10-04T07:20:05;359.10;2329.60
55016;DHT22;40919;43.236;21.590;2022-10-04T07:22:43;359.10;2329.60
55016;DHT22;40919;43.236;21.590;2022-10-04T07:25:35;359.20;2329.60
55016;DHT22;40919;43.236;21.590;2022-10-04T07:28:11;359.30;2329.60
55016;DHT22;40919;43.236;21.590;2022-10-04T07:31:03;359.30;2329.60
55016;DHT22;40919;43.236;21.590;2022-10-04T07:33:46;384.00;2329.60
55016;DHT22;40919;43.236;21.590;2022-10-04T07:36:28;384.00;2329.60
55016;DHT22;40919;43.236;21.590;2022-10-04T07:39:00;384.10;2329.60
55016;DHT22;40919;43.236;21.590;2022-10-04T07:41:50;384.00;2329.60
55016;DHT22;40919;43.236;21.590;2022-10-04T07:44:35;384.00;2329.60
55016;DHT22;40919;43.236;21.590;2022-10-04T07:47:22;384.20;2329.60
55016;DHT22;40919;43.236;21.590;2022-10-04T07:49:50;384.40;2329.60
55016;DHT22;40919;43.236;21.590;2022-10-04T07:56:05;384.60;2329.60
55016;DHT22;40919;43.236;21.590;2022-10-04T08:04:35;384.90;2329.60
55016;DHT22;40919;43.236;21.590;2022-10-04T08:07:25;384.70;2329.60
55016;DHT22;40919;43.236;21.590;2022-10-04T08:15:46;384.70;2329.60
55016;DHT22;40919;43.236;21.590;2022-10-04T08:21:08;384.70;2329.60
55016;DHT22;40919;43.236;21.590;2022-10-04T08:24:52;384.70;2329.60
55016;DHT22;40919;43.236;21.590;2022-10-04T08:34:53;384.60;2329.60
55016;DHT22;40919;43.236;21.590;2022-10-04T08:53:58;384.90;2329.60
55016;DHT22;40919;43.236;21.590;2022-10-04T09:05:12;409.70;2355.20
55016;DHT22;40919;43.236;21.590;2022-10-04T09:16:41;410.00;2355.20
55016;DHT22;40919;43.236;21.590;2022-10-04T09:25:29;410.30;2355.20
55016;DHT22;40919;43.236;21.590;2022-10-04T09:28:08;410.50;2355.20
55016;DHT22;40919;43.236;21.590;2022-10-04T09:52:12;410.30;2355.20
55016;DHT22;40919;43.236;21.590;2022-10-04T09:55:03;410.30;2355.20
55016;DHT22;40919;43.236;21.590;2022-10-04T09:57:59;410.30;2355.20
55016;DHT22;40919;43.236;21.590;2022-10-04T10:00:48;410.30;2355.20
55016;DHT22;40919;43.236;21.590;2022-10-04T10:06:35;410.40;2355.20
55016;DHT22;40919;43.236;21.590;2022-10-04T10:15:55;410.50;2355.20
55016;DHT22;40919;43.236;21.590;2022-10-04T10:18:37;435.20;2355.20
55016;DHT22;40919;43.236;21.590;2022-10-04T10:33:00;435.80;2355.20
55016;DHT22;40919;43.236;21.590;2022-10-04T10:35:48;435.70;2355.20
55016;DHT22;40919;43.236;21.590;2022-10-04T10:52:30;435.40;2355.20
55016;DHT22;40919;43.236;21.590;2022-10-04T10:58:36;435.30;2355.20
55016;DHT22;40919;43.236;21.590;2022-10-04T11:10:29;435.40;2355.20
55016;DHT22;40919;43.236;21.590;2022-10-04T11:16:16;435.40;2355.20
55016;DHT22;40919;43.236;21.590;2022-10-04T11:33:09;435.60;2355.20
55016;DHT22;40919;43.236;21.590;2022-10-04T11:38:42;461.60;2380.80
55016;DHT22;40919;43.236;21.590;2022-10-04T11:49:23;461.20;2380.80
55016;DHT22;40919;43.236;21.590;2022-10-04T11:52:07;461.10;2380.80
55016;DHT22;40919;43.236;21.590;2022-10-04T12:00:18;436.10;2355.20
55016;DHT22;40919;43.236;21.590;2022-10-04T12:23:35;435.80;2355.20
55016;DHT22;40919;43.236;21.590;2022-10-04T12:29:30;435.90;2355.20
55016;DHT22;40919;43.236;21.590;2022-10-04T12:36:52;436.10;2355.20
55016;DHT22;40919;43.236;21.590;2022-10-04T12:42:34;436.10;2355.20
55016;DHT22;40919;43.236;21.590;2022-10-04T12:50:52;436.00;2355.20
55016;DHT22;40919;43.236;21.590;2022-10-04T13:07:43;435.80;2355.20
55016;DHT22;40919;43.236;21.590;2022-10-04T13:13:22;435.90;2355.20
55016;DHT22;40919;43.236;21.590;2022-10-04T13:16:05;460.80;2380.80
55016;DHT22;40919;43.236;21.590;2022-10-04T13:18:38;461.00;2380.80
55016;DHT22;40919;43.236;21.590;2022-10-04T13:21:10;461.20;2380.80
55016;DHT22;40919;43.236;21.590;2022-10-04T13:45:42;461.20;2380.80
55016;DHT22;40919;43.236;21.590;2022-10-04T13:48:32;460.90;2380.80
55016;DHT22;40919;43.236;21.590;2022-10-04T13:51:18;436.10;2355.20
55016;DHT22;40919;43.236;21.590;2022-10-04T13:57:17;435.90;2355.20
55016;DHT22;40919;43.236;21.590;2022-10-04T14:24:41;435.60;2355.20
55016;DHT22;40919;43.236;21.590;2022-10-04T14:33:36;435.60;2355.20
55016;DHT22;40919;43.236;21.590;2022-10-04T14:51:11;435.70;2355.20
55016;DHT22;40919;43.236;21.590;2022-10-04T14:53:59;435.60;2355.20
55016;DHT22;40919;43.236;21.590;2022-10-04T14:56:40;435.60;2355.20
55016;DHT22;40919;43.236;21.590;2022-10-04T14:59:26;435.70;2355.20
55016;DHT22;40919;43.236;21.590;2022-10-04T15:10:13;435.80;2355.20
55016;DHT22;40919;43.236;21.590;2022-10-04T15:17:59;435.80;2355.20
55016;DHT22;40919;43.236;21.590;2022-10-04T15:20:49;435.80;2355.20
55016;DHT22;40919;43.236;21.590;2022-10-04T15:34:30;435.50;2355.20
55016;DHT22;40919;43.236;21.590;2022-10-04T15:40:00;435.40;2355.20
55016;DHT22;40919;43.236;21.590;2022-10-04T15:42:38;435.40;2355.20
55016;DHT22;40919;43.236;21.590;2022-10-04T15:48:24;435.30;2355.20
55016;DHT22;40919;43.236;21.590;2022-10-04T15:54:30;410.50;2355.20
55016;DHT22;40919;43.236;21.590;2022-10-04T15:57:16;410.50;2355.20
55016;DHT22;40919;43.236;21.590;2022-10-04T16:07:58;410.20;2355.20
55016;DHT22;40919;43.236;21.590;2022-10-04T16:15:42;410.00;2355.20
55016;DHT22;40919;43.236;21.590;2022-10-04T16:21:11;410.00;2355.20
55016;DHT22;40919;43.236;21.590;2022-10-04T16:23:43;410.00;2355.20
55016;DHT22;40919;43.236;21.590;2022-10-04T16:26:12;409.80;2355.20
55016;DHT22;40919;43.236;21.590;2022-10-04T16:48:26;384.90;2329.60
55016;DHT22;40919;43.236;21.590;2022-10-04T17:04:50;384.40;2329.60
55016;DHT22;40919;43.236;21.590;2022-10-04T17:28:57;384.40;2329.60
55016;DHT22;40919;43.236;21.590;2022-10-04T17:40:17;384.40;2329.60
55016;DHT22;40919;43.236;21.590;2022-10-04T17:51:43;384.40;2329.60
55016;DHT22;40919;43.236;21.590;2022-10-04T18:05:27;384.40;2329.60
55016;DHT22;40919;43.236;21.590;2022-10-04T18:08:01;384.40;2329.60
55016;DHT22;40919;43.236;21.590;2022-10-04T18:10:37;384.40;2329.60
55016;DHT22;40919;43.236;21.590;2022-10-04T18:13:17;384.40;2329.60
55016;DHT22;40919;43.236;21.590;2022-10-04T18:18:41;384.40;2329.60
55016;DHT22;40919;43.236;21.590;2022-10-04T18:21:28;384.40;2329.60
55016;DHT22;40919;43.236;21.590;2022-10-04T18:23:56;384.40;2329.60
55016;DHT22;40919;43.236;21.590;2022-10-04T18:26:26;384.40;2329.60
55016;DHT22;40919;43.236;21.590;2022-10-04T18:28:53;384.40;2329.60
55016;DHT22;40919;43.236;21.590;2022-10-04T18:37:26;384.40;2329.60
55016;DHT22;40919;43.236;21.590;2022-10-04T18:39:46;384.30;2329.60
55016;DHT22;40919;43.236;21.590;2022-10-04T18:42:19;384.40;2329.60
55016;DHT22;40919;43.236;21.590;2022-10-04T18:44:58;384.30;2329.60
55016;DHT22;40919;43.236;21.590;2022-10-04T18:47:38;384.40;2329.60
55016;DHT22;40919;43.236;21.590;2022-10-04T18:50:29;384.40;2329.60
55016;DHT22;40919;43.236;21.590;2022-10-04T18:56:03;384.20;2329.60
55016;DHT22;40919;43.236;21.590;2022-10-04T19:02:11;384.10;2329.60
55016;DHT22;40919;43.236;21.590;2022-10-04T19:04:55;384.10;2329.60
55016;DHT22;40919;43.236;21.590;2022-10-04T19:07:49;384.00;2329.60
55016;DHT22;40919;43.236;21.590;2022-10-04T19:20:53;384.10;2329.60
55016;DHT22;40919;43.236;21.590;2022-10-04T19:23:31;384.10;2329.60
55016;DHT22;40919;43.236;21.590;2022-10-04T19:31:50;384.20;2329.60
55016;DHT22;40919;43.236;21.590;2022-10-04T19:34:23;384.10;2329.60
55016;DHT22;40919;43.236;21.590;2022-10-04T19:39:41;384.10;2329.60
55016;DHT22;40919;43.236;21.590;2022-10-04T19:46:05;384.10;2329.60
55016;DHT22;40919;43.236;21.590;2022-10-04T19:48:22;384.10;2329.60
55016;DHT22;40919;43.236;21.590;2022-10-04T19:50:55;384.10;2329.60
55016;DHT22;40919;43.236;21.590;2022-10-04T19:53:46;384.10;2329.60
55016;DHT22;40919;43.236;21.590;2022-10-04T19:56:19;384.20;2329.60
55016;DHT22;40919;43.236;21.590;2022-10-04T20:01:18;384.00;2329.60
55016;DHT22;40919;43.236;21.590;2022-10-04T20:03:54;384.00;2329.60
55016;DHT22;40919;43.236;21.590;2022-10-04T20:06:52;384.10;2329.60
55016;DHT22;40919;43.236;21.590;2022-10-04T20:09:49;384.10;2329.60
55016;DHT22;40919;43.236;21.590;2022-10-04T20:15:21;384.10;2329.60
55016;DHT22;40919;43.236;21.590;2022-10-04T20:26:07;359.30;2329.60
55016;DHT22;40919;43.236;21.590;2022-10-04T20:33:51;359.30;2329.60
55016;DHT22;40919;43.236;21.590;2022-10-04T20:39:01;359.30;2329.60
55016;DHT22;40919;43.236;21.590;2022-10-04T20:43:55;359.20;2329.60
55016;DHT22;40919;43.236;21.590;2022-10-04T20:46:26;359.10;2329.60
55016;DHT22;40919;43.236;21.590;2022-10-04T20:48:52;359.10;2329.60
55016;DHT22;40919;43.236;21.590;2022-10-04T20:51:19;359.10;2329.60
55016;DHT22;40919;43.236;21.590;2022-10-04T20:53:47;359.10;2329.60
55016;DHT22;40919;43.236;21.590;2022-10-04T20:56:29;359.10;2329.60
55016;DHT22;40919;43.236;21.590;2022-10-04T20:59:00;359.10;2329.60
55016;DHT22;40919;43.236;21.590;2022-10-04T21:01:31;359.20;2329.60
55016;DHT22;40919;43.236;21.590;2022-10-04T21:04:21;359.10;2329.60
55016;DHT22;40919;43.236;21.590;2022-10-04T21:07:21;359.10;2329.60
55016;DHT22;40919;43.236;21.590;2022-10-04T21:09:48;359.00;2329.60
55016;DHT22;40919;43.236;21.590;2022-10-04T21:15:19;358.90;2329.60
55016;DHT22;40919;43.236;21.590;2022-10-04T21:18:00;358.80;2329.60
55016;DHT22;40919;43.236;21.590;2022-10-04T21:20:49;358.80;2329.60
55016;DHT22;40919;43.236;21.590;2022-10-04T21:23:25;358.60;2329.60
55016;DHT22;40919;43.236;21.590;2022-10-04T21:26:18;358.60;2329.60
55016;DHT22;40919;43.236;21.590;2022-10-04T21:28:54;358.70;2329.60
55016;DHT22;40919;43.236;21.590;2022-10-04T21:31:22;358.60;2329.60
55016;DHT22;40919;43.236;21.590;2022-10-04T21:33:47;358.60;2329.60
55016;DHT22;40919;43.236;21.590;2022-10-04T21:36:13;358.60;2329.60
55016;DHT22;40919;43.236;21.590;2022-10-04T21:38:40;358.60;2329.60
55016;DHT22;40919;43.236;21.590;2022-10-04T21:41:06;358.80;2329.60
55016;DHT22;40919;43.236;21.590;2022-10-04T21:43:32;358.50;2329.60
55016;DHT22;40919;43.236;21.590;2022-10-04T21:45:57;358.50;2329.60
55016;DHT22;40919;43.236;21.590;2022-10-04T21:48:24;358.60;2329.60
55016;DHT22;40919;43.236;21.590;2022-10-04T21:50:50;358.50;2329.60
55016;DHT22;40919;43.236;21.590;2022-10-04T21:53:17;358.50;2329.60
55016;DHT22;40919;43.236;21.590;2022-10-04T21:55:43;358.50;2329.60
55016;DHT22;40919;43.236;21.590;2022-10-04T21:58:10;358.50;2329.60
55016;DHT22;40919;43.236;21.590;2022-10-04T22:00:36;333.70;2329.60
55016;DHT22;40919;43.236;21.590;2022-10-04T22:03:02;358.40;2329.60
55016;DHT22;40919;43.236;21.590;2022-10-04T22:05:28;333.70;2329.60
55016;DHT22;40919;43.236;21.590;2022-10-04T22:07:54;333.50;2329.60
55016;DHT22;40919;43.236;21.590;2022-10-04T22:10:20;333.30;2329.60
55016;DHT22;40919;43.236;21.590;2022-10-04T22:12:45;333.50;2329.60
55016;DHT22;40919;43.236;21.590;2022-10-04T22:15:11;333.60;2329.60
55016;DHT22;40919;43.236;21.590;2022-10-04T22:17:37;333.70;2329.60
55016;DHT22;40919;43.236;21.590;2022-10-04T22:20:03;333.50;2329.60
55016;DHT22;40919;43.236;21.590;2022-10-04T22:22:31;333.50;2329.60
55016;DHT22;40919;43.236;21.590;2022-10-04T22:24:57;333.60;2329.60
55016;DHT22;40919;43.236;21.590;2022-10-04T22:27:23;333.60;2329.60
55016;DHT22;40919;43.236;21.590;2022-10-04T22:29:56;333.70;2329.60
55016;DHT22;40919;43.236;21.590;2022-10-04T22:32:26;333.70;2329.60
55016;DHT22;40919;43.236;21.590;2022-10-04T22:35:12;358.40;2329.60
55016;DHT22;40919;43.236;21.590;2022-10-04T22:37:39;358.40;2329.60
55016;DHT22;40919;43.236;21.590;2022-10-04T22:40:18;333.70;2329.60
55016;DHT22;40919;43.236;21.590;2022-10-04T22:42:45;358.40;2329.60
55016;DHT22;40919;43.236;21.590;2022-10-04T22:45:30;358.40;2329.60
55016;DHT22;40919;43.236;21.590;2022-10-04T22:48:00;333.70;2329.60
55016;DHT22;40919;43.236;21.590;2022-10-04T22:50:33;333.70;2329.60
55016;DHT22;40919;43.236;21.590;2022-10-04T22:53:16;333.70;2329.60
55016;DHT22;40919;43.236;21.590;2022-10-04T22:55:44;333.70;2329.60
55016;DHT22;40919;43.236;21.590;2022-10-04T22:58:13;333.70;2329.60
55016;DHT22;40919;43.236;21.590;2022-10-04T23:00:40;333.70;2329.60
55016;DHT22;40919;43.236;21.590;2022-10-04T23:03:26;333.70;2329.60
55016;DHT22;40919;43.236;21.590;2022-10-04T23:05:52;333.60;2329.60
55016;DHT22;40919;43.236;21.590;2022-10-04T23:08:18;333.60;2329.60
55016;DHT22;40919;43.236;21.590;2022-10-04T23:10:44;333.60;2329.60
55016;DHT22;40919;43.236;21.590;2022-10-04T23:13:10;333.60;2329.60
55016;DHT22;40919;43.236;21.590;2022-10-04T23:15:36;333.50;2329.60
55016;DHT22;40919;43.236;21.590;2022-10-04T23:18:12;333.60;2329.60
55016;DHT22;40919;43.236;21.590;2022-10-04T23:20:39;333.50;2329.60
55016;DHT22;40919;43.236;21.590;2022-10-04T23:23:12;333.30;2329.60
55016;DHT22;40919;43.236;21.590;2022-10-04T23:25:48;333.10;2329.60
55016;DHT22;40919;43.236;21.590;2022-10-04T23:28:17;333.10;2329.60
55016;DHT22;40919;43.236;21.590;2022-10-04T23:30:44;333.20;2329.60
55016;DHT22;40919;43.236;21.590;2022-10-04T23:33:20;333.20;2329.60
55016;DHT22;40919;43.236;21.590;2022-10-04T23:35:49;333.20;2329.60
55016;DHT22;40919;43.236;21.590;2022-10-04T23:38:18;333.10;2329.60
55016;DHT22;40919;43.236;21.590;2022-10-04T23:40:45;333.00;2329.60
55016;DHT22;40919;43.236;21.590;2022-10-04T23:43:20;333.10;2329.60
55016;DHT22;40919;43.236;21.590;2022-10-04T23:45:49;333.10;2329.60
55016;DHT22;40919;43.236;21.590;2022-10-04T23:48:20;333.10;2329.60
55016;DHT22;40919;43.236;21.590;2022-10-04T23:50:48;333.10;2329.60
55016;DHT22;40919;43.236;21.590;2022-10-04T23:53:22;333.10;2329.60
55016;DHT22;40919;43.236;21.590;2022-10-04T23:55:51;333.10;2329.60
55016;DHT22;40919;43.236;21.590;2022-10-04T23:58:20;333.10;2329.60
